Airfield :







YOU CAN JOIN US ON...

 
LOGIN :

Register | Disclaimer

   EN    FR    IT 

 









Legend :    VFR   Marginal VFR   IFR   Intensive IFR   Very Intensive IFR
Visi :
Ceiling :
>= 8 km
>= 3000ft
5 to 8 km
1000 to 3000 ft
1500m to 5 km
500 to 1000 ft
800 to 1500m
200 to 500 ft
< 800m
< 200 ft
Symbols :   Thunderstorms  Fog  Heavy snow  Heavy precipitations  Wind > 20 kt






- Airport Elevation : 72 ft
- IATA code : YDF


CYDF - Deer Lake

CURRENT METAR :
  • 281300Z 06011G19KT 8SM -SN DRSN OVC026 M03/M06 A2956 RMK SC8 SLP012

EXPIRED METARs :
  • 281200Z 06012G19KT 8SM -SN DRSN BKN024 OVC033 M04/M06 A2959 RMK SC5SC3 SLP022
  • 281147Z 06014KT 7SM -SN DRSN BKN026 OVC033 M04/M07 A2959 RMK SC5SC3 PRESFR SLP023
  • 281126Z 05014G20KT 7SM -PLSN OVC028 M04/M07 A2961 RMK SC8 SLP031
  • 281100Z 03012G21KT 6SM -SN DRSN OVC027 M04/M07 A2962 RMK SC8 /S06/ SLP033

TAF AMD TAF CYDF
Valid from the 28 at 10:00 until the 28 at 20:00 UTC


281019Z 2810/2820 03008KT WS005/10030KT 3SM -SN OVC020
TEMPO 2810/2816 6SM -SN OVC030
PROB30 2810/2816 21/2SM -SN OVC007
FM281600 07012G22KT 21/2SM -SN OVC010
TEMPO 2816/2818 5SM -SN
FM281800 07012KT 2SM -SN OVC008
TEMPO 2818/2820 6SM -SN OVC015
BECMG 2818/2820 20012KT RMK NXT FCST BY 281400Z



MET'MAP, your aeronautical weather chart ! - Copyright ORBIFLY December 2007 - Disclaimer

ORBIFLY MET'MAP TEAM :

Programming & Development : Alexandra Zaïnal
Concept & original design : Baudouin d'Aumeries
Assistance for programming : Marc-Olivier Méhu
Technical & hardware support : Manuel Goepfert

Contact : metmap@orbifly.com




SOURCES & CREDITS :

   NOAA